sensor_id;sensor_type;location;lat;lon;timestamp;P1;durP1;ratioP1;P2;durP2;ratioP2
20711;SDS011;10517;50.742;4.224;2023-09-12T00:01:44;11.23;;;6.65;;
20711;SDS011;10517;50.742;4.224;2023-09-12T00:04:10;16.13;;;8.13;;
20711;SDS011;10517;50.742;4.224;2023-09-12T00:06:36;11.55;;;7.10;;
20711;SDS011;10517;50.742;4.224;2023-09-12T00:09:02;9.18;;;6.07;;
20711;SDS011;10517;50.742;4.224;2023-09-12T00:11:30;12.18;;;6.43;;
20711;SDS011;10517;50.742;4.224;2023-09-12T00:13:56;11.52;;;6.93;;
20711;SDS011;10517;50.742;4.224;2023-09-12T00:16:24;13.93;;;6.53;;
20711;SDS011;10517;50.742;4.224;2023-09-12T00:18:50;12.55;;;6.65;;
20711;SDS011;10517;50.742;4.224;2023-09-12T00:21:15;10.52;;;6.30;;
20711;SDS011;10517;50.742;4.224;2023-09-12T00:23:41;13.63;;;7.93;;
20711;SDS011;10517;50.742;4.224;2023-09-12T00:26:07;19.10;;;7.55;;
20711;SDS011;10517;50.742;4.224;2023-09-12T00:28:33;17.60;;;9.65;;
20711;SDS011;10517;50.742;4.224;2023-09-12T00:30:59;14.77;;;8.75;;
20711;SDS011;10517;50.742;4.224;2023-09-12T00:33:25;22.55;;;8.95;;
20711;SDS011;10517;50.742;4.224;2023-09-12T00:35:51;15.40;;;8.57;;
20711;SDS011;10517;50.742;4.224;2023-09-12T00:38:16;12.73;;;6.45;;
20711;SDS011;10517;50.742;4.224;2023-09-12T00:40:42;14.90;;;8.48;;
20711;SDS011;10517;50.742;4.224;2023-09-12T00:43:08;16.95;;;9.30;;
20711;SDS011;10517;50.742;4.224;2023-09-12T00:45:35;19.63;;;7.95;;
20711;SDS011;10517;50.742;4.224;2023-09-12T00:48:01;13.15;;;8.00;;
20711;SDS011;10517;50.742;4.224;2023-09-12T00:50:29;14.68;;;9.05;;
20711;SDS011;10517;50.742;4.224;2023-09-12T00:52:57;13.77;;;7.68;;
20711;SDS011;10517;50.742;4.224;2023-09-12T00:55:23;12.30;;;7.20;;
20711;SDS011;10517;50.742;4.224;2023-09-12T00:57:49;12.98;;;6.80;;
20711;SDS011;10517;50.742;4.224;2023-09-12T01:00:17;12.80;;;6.75;;
20711;SDS011;10517;50.742;4.224;2023-09-12T01:02:44;16.27;;;8.88;;
20711;SDS011;10517;50.742;4.224;2023-09-12T01:05:12;15.02;;;7.65;;
20711;SDS011;10517;50.742;4.224;2023-09-12T01:07:39;13.23;;;7.28;;
20711;SDS011;10517;50.742;4.224;2023-09-12T01:10:07;18.38;;;8.68;;
20711;SDS011;10517;50.742;4.224;2023-09-12T01:12:34;12.82;;;7.28;;
20711;SDS011;10517;50.742;4.224;2023-09-12T01:15:00;15.45;;;8.75;;
20711;SDS011;10517;50.742;4.224;2023-09-12T01:17:25;18.10;;;8.32;;
20711;SDS011;10517;50.742;4.224;2023-09-12T01:19:53;11.32;;;6.50;;
20711;SDS011;10517;50.742;4.224;2023-09-12T01:25:12;13.05;;;6.53;;
20711;SDS011;10517;50.742;4.224;2023-09-12T01:27:51;15.63;;;7.97;;
20711;SDS011;10517;50.742;4.224;2023-09-12T01:30:20;18.20;;;8.95;;
20711;SDS011;10517;50.742;4.224;2023-09-12T01:32:47;14.27;;;7.50;;
20711;SDS011;10517;50.742;4.224;2023-09-12T01:35:14;16.50;;;8.63;;
20711;SDS011;10517;50.742;4.224;2023-09-12T01:37:40;15.68;;;9.27;;
20711;SDS011;10517;50.742;4.224;2023-09-12T01:40:06;15.07;;;8.25;;
20711;SDS011;10517;50.742;4.224;2023-09-12T01:42:42;15.15;;;8.45;;
20711;SDS011;10517;50.742;4.224;2023-09-12T01:45:11;15.10;;;8.43;;
20711;SDS011;10517;50.742;4.224;2023-09-12T01:47:42;14.52;;;6.97;;
20711;SDS011;10517;50.742;4.224;2023-09-12T01:50:12;14.98;;;9.40;;
20711;SDS011;10517;50.742;4.224;2023-09-12T01:52:38;17.95;;;9.60;;
20711;SDS011;10517;50.742;4.224;2023-09-12T01:55:06;16.25;;;9.13;;
20711;SDS011;10517;50.742;4.224;2023-09-12T01:57:34;15.10;;;8.18;;
20711;SDS011;10517;50.742;4.224;2023-09-12T02:00:01;15.43;;;9.13;;
20711;SDS011;10517;50.742;4.224;2023-09-12T02:02:27;14.70;;;8.48;;
20711;SDS011;10517;50.742;4.224;2023-09-12T02:04:57;14.18;;;9.38;;
20711;SDS011;10517;50.742;4.224;2023-09-12T02:07:37;17.80;;;8.00;;
20711;SDS011;10517;50.742;4.224;2023-09-12T02:10:04;17.70;;;8.75;;
20711;SDS011;10517;50.742;4.224;2023-09-12T02:12:31;22.27;;;9.75;;
20711;SDS011;10517;50.742;4.224;2023-09-12T02:14:57;21.70;;;9.15;;
20711;SDS011;10517;50.742;4.224;2023-09-12T02:17:23;17.83;;;10.73;;
20711;SDS011;10517;50.742;4.224;2023-09-12T02:19:49;24.17;;;10.80;;
20711;SDS011;10517;50.742;4.224;2023-09-12T02:22:15;17.80;;;9.93;;
20711;SDS011;10517;50.742;4.224;2023-09-12T02:24:40;18.23;;;9.75;;
20711;SDS011;10517;50.742;4.224;2023-09-12T02:27:06;18.30;;;10.18;;
20711;SDS011;10517;50.742;4.224;2023-09-12T02:29:32;18.48;;;9.82;;
20711;SDS011;10517;50.742;4.224;2023-09-12T02:31:58;15.75;;;9.25;;
20711;SDS011;10517;50.742;4.224;2023-09-12T02:34:23;17.20;;;9.60;;
20711;SDS011;10517;50.742;4.224;2023-09-12T02:36:49;16.23;;;9.98;;
20711;SDS011;10517;50.742;4.224;2023-09-12T02:39:15;20.58;;;10.48;;
20711;SDS011;10517;50.742;4.224;2023-09-12T02:41:41;19.23;;;10.65;;
20711;SDS011;10517;50.742;4.224;2023-09-12T02:44:07;18.58;;;8.93;;
20711;SDS011;10517;50.742;4.224;2023-09-12T02:46:32;15.75;;;9.65;;
20711;SDS011;10517;50.742;4.224;2023-09-12T02:48:58;23.92;;;9.00;;
20711;SDS011;10517;50.742;4.224;2023-09-12T02:51:27;24.52;;;9.48;;
20711;SDS011;10517;50.742;4.224;2023-09-12T02:53:53;14.35;;;9.38;;
20711;SDS011;10517;50.742;4.224;2023-09-12T02:56:19;18.10;;;9.32;;
20711;SDS011;10517;50.742;4.224;2023-09-12T02:58:45;20.98;;;10.15;;
20711;SDS011;10517;50.742;4.224;2023-09-12T03:01:19;15.30;;;8.82;;
20711;SDS011;10517;50.742;4.224;2023-09-12T03:03:45;21.63;;;9.45;;
20711;SDS011;10517;50.742;4.224;2023-09-12T03:06:12;20.55;;;9.45;;
20711;SDS011;10517;50.742;4.224;2023-09-12T03:08:39;17.83;;;9.15;;
20711;SDS011;10517;50.742;4.224;2023-09-12T03:11:05;16.77;;;9.20;;
20711;SDS011;10517;50.742;4.224;2023-09-12T03:13:32;16.40;;;9.20;;
20711;SDS011;10517;50.742;4.224;2023-09-12T03:15:59;17.52;;;10.65;;
20711;SDS011;10517;50.742;4.224;2023-09-12T03:18:25;16.83;;;8.68;;
20711;SDS011;10517;50.742;4.224;2023-09-12T03:20:50;17.25;;;8.88;;
20711;SDS011;10517;50.742;4.224;2023-09-12T03:23:16;17.90;;;10.38;;
20711;SDS011;10517;50.742;4.224;2023-09-12T03:25:42;15.48;;;8.88;;
20711;SDS011;10517;50.742;4.224;2023-09-12T03:28:08;14.02;;;8.48;;
20711;SDS011;10517;50.742;4.224;2023-09-12T03:30:34;17.75;;;9.82;;
20711;SDS011;10517;50.742;4.224;2023-09-12T03:33:01;20.25;;;8.55;;
20711;SDS011;10517;50.742;4.224;2023-09-12T03:35:33;16.77;;;9.32;;
20711;SDS011;10517;50.742;4.224;2023-09-12T03:37:59;17.02;;;9.20;;
20711;SDS011;10517;50.742;4.224;2023-09-12T03:40:27;16.33;;;8.65;;
20711;SDS011;10517;50.742;4.224;2023-09-12T03:42:56;16.40;;;8.95;;
20711;SDS011;10517;50.742;4.224;2023-09-12T03:45:23;18.60;;;9.30;;
20711;SDS011;10517;50.742;4.224;2023-09-12T03:47:49;18.58;;;8.75;;
20711;SDS011;10517;50.742;4.224;2023-09-12T03:50:16;20.67;;;10.40;;
20711;SDS011;10517;50.742;4.224;2023-09-12T03:52:42;16.95;;;9.25;;
20711;SDS011;10517;50.742;4.224;2023-09-12T03:55:07;15.35;;;7.65;;
20711;SDS011;10517;50.742;4.224;2023-09-12T03:57:34;18.20;;;10.15;;
20711;SDS011;10517;50.742;4.224;2023-09-12T04:00:00;16.70;;;9.70;;
20711;SDS011;10517;50.742;4.224;2023-09-12T04:02:26;15.68;;;7.80;;
20711;SDS011;10517;50.742;4.224;2023-09-12T04:04:51;13.73;;;7.80;;
20711;SDS011;10517;50.742;4.224;2023-09-12T04:07:17;18.15;;;8.73;;
20711;SDS011;10517;50.742;4.224;2023-09-12T04:09:43;14.02;;;8.15;;
20711;SDS011;10517;50.742;4.224;2023-09-12T04:12:09;21.35;;;10.45;;
20711;SDS011;10517;50.742;4.224;2023-09-12T04:14:35;16.55;;;8.43;;
20711;SDS011;10517;50.742;4.224;2023-09-12T04:17:01;17.70;;;9.05;;
20711;SDS011;10517;50.742;4.224;2023-09-12T04:19:27;16.98;;;9.18;;
20711;SDS011;10517;50.742;4.224;2023-09-12T04:21:53;14.73;;;8.70;;
20711;SDS011;10517;50.742;4.224;2023-09-12T04:24:19;18.90;;;9.55;;
20711;SDS011;10517;50.742;4.224;2023-09-12T04:26:46;15.15;;;8.80;;
20711;SDS011;10517;50.742;4.224;2023-09-12T04:29:11;17.52;;;8.65;;
20711;SDS011;10517;50.742;4.224;2023-09-12T04:31:37;14.52;;;8.52;;
20711;SDS011;10517;50.742;4.224;2023-09-12T04:34:03;17.80;;;9.68;;
20711;SDS011;10517;50.742;4.224;2023-09-12T04:36:29;15.88;;;9.75;;
20711;SDS011;10517;50.742;4.224;2023-09-12T04:38:55;16.75;;;7.90;;
20711;SDS011;10517;50.742;4.224;2023-09-12T04:41:21;15.48;;;8.55;;
20711;SDS011;10517;50.742;4.224;2023-09-12T04:43:47;19.45;;;9.90;;
20711;SDS011;10517;50.742;4.224;2023-09-12T04:46:12;14.65;;;8.55;;
20711;SDS011;10517;50.742;4.224;2023-09-12T04:48:38;19.55;;;9.50;;
20711;SDS011;10517;50.742;4.224;2023-09-12T04:51:04;18.67;;;9.10;;
20711;SDS011;10517;50.742;4.224;2023-09-12T04:53:30;14.90;;;8.43;;
20711;SDS011;10517;50.742;4.224;2023-09-12T04:56:02;19.65;;;8.23;;
20711;SDS011;10517;50.742;4.224;2023-09-12T04:58:29;16.30;;;8.48;;
20711;SDS011;10517;50.742;4.224;2023-09-12T05:00:55;16.02;;;8.35;;
20711;SDS011;10517;50.742;4.224;2023-09-12T05:03:21;16.45;;;8.45;;
20711;SDS011;10517;50.742;4.224;2023-09-12T05:05:48;15.85;;;8.68;;
20711;SDS011;10517;50.742;4.224;2023-09-12T05:08:17;15.80;;;8.02;;
20711;SDS011;10517;50.742;4.224;2023-09-12T05:10:46;15.02;;;7.70;;
20711;SDS011;10517;50.742;4.224;2023-09-12T05:13:12;16.33;;;8.68;;
20711;SDS011;10517;50.742;4.224;2023-09-12T05:15:40;17.27;;;8.25;;
20711;SDS011;10517;50.742;4.224;2023-09-12T05:18:06;18.13;;;8.93;;
20711;SDS011;10517;50.742;4.224;2023-09-12T05:20:32;19.85;;;8.77;;
20711;SDS011;10517;50.742;4.224;2023-09-12T05:22:58;19.67;;;9.13;;
20711;SDS011;10517;50.742;4.224;2023-09-12T05:25:25;15.80;;;8.65;;
20711;SDS011;10517;50.742;4.224;2023-09-12T05:27:51;18.10;;;9.93;;
20711;SDS011;10517;50.742;4.224;2023-09-12T05:30:17;20.90;;;9.43;;
20711;SDS011;10517;50.742;4.224;2023-09-12T05:32:43;22.48;;;10.70;;
20711;SDS011;10517;50.742;4.224;2023-09-12T05:35:09;18.50;;;9.23;;
20711;SDS011;10517;50.742;4.224;2023-09-12T05:37:35;15.75;;;8.38;;
20711;SDS011;10517;50.742;4.224;2023-09-12T05:40:01;18.27;;;8.27;;
20711;SDS011;10517;50.742;4.224;2023-09-12T05:42:26;16.20;;;8.05;;
20711;SDS011;10517;50.742;4.224;2023-09-12T05:44:52;16.00;;;9.05;;
20711;SDS011;10517;50.742;4.224;2023-09-12T05:47:18;18.50;;;9.02;;
20711;SDS011;10517;50.742;4.224;2023-09-12T05:49:45;19.98;;;9.20;;
20711;SDS011;10517;50.742;4.224;2023-09-12T05:52:11;20.15;;;9.30;;
20711;SDS011;10517;50.742;4.224;2023-09-12T05:54:37;22.95;;;9.70;;
20711;SDS011;10517;50.742;4.224;2023-09-12T05:57:03;16.15;;;9.05;;
20711;SDS011;10517;50.742;4.224;2023-09-12T05:59:29;21.13;;;11.20;;
20711;SDS011;10517;50.742;4.224;2023-09-12T06:01:55;18.00;;;10.40;;
20711;SDS011;10517;50.742;4.224;2023-09-12T06:04:21;18.63;;;9.23;;
20711;SDS011;10517;50.742;4.224;2023-09-12T06:06:47;18.10;;;9.65;;
20711;SDS011;10517;50.742;4.224;2023-09-12T06:09:12;19.10;;;9.57;;
20711;SDS011;10517;50.742;4.224;2023-09-12T06:11:38;16.10;;;8.32;;
20711;SDS011;10517;50.742;4.224;2023-09-12T06:14:04;16.55;;;8.93;;
20711;SDS011;10517;50.742;4.224;2023-09-12T06:16:30;17.30;;;8.68;;
20711;SDS011;10517;50.742;4.224;2023-09-12T06:18:55;19.63;;;9.07;;
20711;SDS011;10517;50.742;4.224;2023-09-12T06:21:21;18.67;;;9.48;;
20711;SDS011;10517;50.742;4.224;2023-09-12T06:23:47;17.83;;;9.32;;
20711;SDS011;10517;50.742;4.224;2023-09-12T06:26:32;19.80;;;9.23;;
20711;SDS011;10517;50.742;4.224;2023-09-12T06:28:58;15.77;;;8.50;;
20711;SDS011;10517;50.742;4.224;2023-09-12T06:31:24;15.68;;;8.23;;
20711;SDS011;10517;50.742;4.224;2023-09-12T06:33:50;19.60;;;9.02;;
20711;SDS011;10517;50.742;4.224;2023-09-12T06:36:15;13.05;;;8.27;;
20711;SDS011;10517;50.742;4.224;2023-09-12T06:38:41;18.30;;;9.57;;
20711;SDS011;10517;50.742;4.224;2023-09-12T06:41:07;17.17;;;8.15;;
20711;SDS011;10517;50.742;4.224;2023-09-12T06:43:33;18.02;;;9.63;;
20711;SDS011;10517;50.742;4.224;2023-09-12T06:45:58;22.52;;;9.68;;
20711;SDS011;10517;50.742;4.224;2023-09-12T06:48:24;15.48;;;8.20;;
20711;SDS011;10517;50.742;4.224;2023-09-12T06:50:50;15.90;;;9.38;;
20711;SDS011;10517;50.742;4.224;2023-09-12T06:53:16;17.35;;;9.15;;
20711;SDS011;10517;50.742;4.224;2023-09-12T06:55:41;20.67;;;9.35;;
20711;SDS011;10517;50.742;4.224;2023-09-12T06:58:07;16.05;;;8.85;;
20711;SDS011;10517;50.742;4.224;2023-09-12T07:00:33;21.13;;;8.52;;
20711;SDS011;10517;50.742;4.224;2023-09-12T07:02:59;18.55;;;9.05;;
20711;SDS011;10517;50.742;4.224;2023-09-12T07:05:24;16.38;;;8.98;;
20711;SDS011;10517;50.742;4.224;2023-09-12T07:07:52;14.75;;;8.05;;
20711;SDS011;10517;50.742;4.224;2023-09-12T07:10:18;14.68;;;8.55;;
20711;SDS011;10517;50.742;4.224;2023-09-12T07:12:43;18.52;;;7.60;;
20711;SDS011;10517;50.742;4.224;2023-09-12T07:15:09;17.13;;;7.78;;
20711;SDS011;10517;50.742;4.224;2023-09-12T07:17:35;19.83;;;8.95;;
20711;SDS011;10517;50.742;4.224;2023-09-12T07:20:01;15.75;;;7.65;;
20711;SDS011;10517;50.742;4.224;2023-09-12T07:22:27;16.58;;;7.82;;
20711;SDS011;10517;50.742;4.224;2023-09-12T07:24:54;14.40;;;7.72;;
20711;SDS011;10517;50.742;4.224;2023-09-12T07:27:19;13.68;;;7.60;;
20711;SDS011;10517;50.742;4.224;2023-09-12T07:29:45;14.90;;;7.78;;
20711;SDS011;10517;50.742;4.224;2023-09-12T07:32:11;14.73;;;7.38;;
20711;SDS011;10517;50.742;4.224;2023-09-12T07:34:36;13.32;;;7.55;;
20711;SDS011;10517;50.742;4.224;2023-09-12T07:37:03;12.40;;;7.10;;
20711;SDS011;10517;50.742;4.224;2023-09-12T07:39:28;15.50;;;6.90;;
20711;SDS011;10517;50.742;4.224;2023-09-12T07:41:54;18.70;;;8.23;;
20711;SDS011;10517;50.742;4.224;2023-09-12T07:44:20;12.10;;;6.93;;
20711;SDS011;10517;50.742;4.224;2023-09-12T07:46:46;13.85;;;7.15;;
20711;SDS011;10517;50.742;4.224;2023-09-12T07:49:11;15.77;;;6.95;;
20711;SDS011;10517;50.742;4.224;2023-09-12T07:51:37;15.70;;;7.25;;
20711;SDS011;10517;50.742;4.224;2023-09-12T07:54:03;11.05;;;6.25;;
20711;SDS011;10517;50.742;4.224;2023-09-12T07:56:29;12.82;;;6.13;;
20711;SDS011;10517;50.742;4.224;2023-09-12T07:58:56;10.95;;;5.90;;
20711;SDS011;10517;50.742;4.224;2023-09-12T08:01:22;12.75;;;7.20;;
20711;SDS011;10517;50.742;4.224;2023-09-12T08:03:48;12.48;;;7.50;;
20711;SDS011;10517;50.742;4.224;2023-09-12T08:06:14;20.48;;;6.68;;
20711;SDS011;10517;50.742;4.224;2023-09-12T08:08:39;10.35;;;6.72;;
20711;SDS011;10517;50.742;4.224;2023-09-12T08:11:05;14.93;;;7.35;;
20711;SDS011;10517;50.742;4.224;2023-09-12T08:13:31;16.30;;;6.80;;
20711;SDS011;10517;50.742;4.224;2023-09-12T08:15:57;14.55;;;7.35;;
20711;SDS011;10517;50.742;4.224;2023-09-12T08:18:26;17.50;;;9.02;;
20711;SDS011;10517;50.742;4.224;2023-09-12T08:20:53;15.27;;;6.78;;
20711;SDS011;10517;50.742;4.224;2023-09-12T08:23:19;16.27;;;8.07;;
20711;SDS011;10517;50.742;4.224;2023-09-12T08:25:45;11.85;;;7.07;;
20711;SDS011;10517;50.742;4.224;2023-09-12T08:28:11;13.23;;;7.20;;
20711;SDS011;10517;50.742;4.224;2023-09-12T08:30:37;13.35;;;7.22;;
20711;SDS011;10517;50.742;4.224;2023-09-12T08:33:02;12.45;;;5.93;;
20711;SDS011;10517;50.742;4.224;2023-09-12T08:35:29;17.42;;;7.75;;
20711;SDS011;10517;50.742;4.224;2023-09-12T08:37:55;15.20;;;6.43;;
20711;SDS011;10517;50.742;4.224;2023-09-12T08:40:20;19.50;;;8.40;;
20711;SDS011;10517;50.742;4.224;2023-09-12T08:42:46;18.17;;;7.57;;
20711;SDS011;10517;50.742;4.224;2023-09-12T08:45:14;14.10;;;6.07;;
20711;SDS011;10517;50.742;4.224;2023-09-12T08:47:42;17.73;;;8.20;;
20711;SDS011;10517;50.742;4.224;2023-09-12T08:50:15;18.83;;;7.63;;
20711;SDS011;10517;50.742;4.224;2023-09-12T08:52:42;16.75;;;7.38;;
20711;SDS011;10517;50.742;4.224;2023-09-12T08:55:09;18.83;;;7.60;;
20711;SDS011;10517;50.742;4.224;2023-09-12T08:57:36;20.35;;;8.75;;
20711;SDS011;10517;50.742;4.224;2023-09-12T09:00:09;13.00;;;6.88;;
20711;SDS011;10517;50.742;4.224;2023-09-12T09:02:41;18.60;;;9.25;;
20711;SDS011;10517;50.742;4.224;2023-09-12T09:05:08;18.33;;;8.65;;
20711;SDS011;10517;50.742;4.224;2023-09-12T09:07:38;20.50;;;9.20;;
20711;SDS011;10517;50.742;4.224;2023-09-12T09:10:09;22.73;;;9.40;;
20711;SDS011;10517;50.742;4.224;2023-09-12T09:12:40;19.10;;;7.50;;
20711;SDS011;10517;50.742;4.224;2023-09-12T09:17:53;15.25;;;8.20;;
20711;SDS011;10517;50.742;4.224;2023-09-12T09:20:27;16.35;;;8.02;;
20711;SDS011;10517;50.742;4.224;2023-09-12T09:23:03;20.38;;;8.98;;
20711;SDS011;10517;50.742;4.224;2023-09-12T09:25:36;15.70;;;7.70;;
20711;SDS011;10517;50.742;4.224;2023-09-12T09:28:19;19.48;;;9.02;;
20711;SDS011;10517;50.742;4.224;2023-09-12T09:30:46;15.52;;;7.88;;
20711;SDS011;10517;50.742;4.224;2023-09-12T09:33:17;14.82;;;7.63;;
20711;SDS011;10517;50.742;4.224;2023-09-12T09:35:47;16.48;;;8.77;;
20711;SDS011;10517;50.742;4.224;2023-09-12T09:38:14;13.88;;;7.22;;
20711;SDS011;10517;50.742;4.224;2023-09-12T09:40:44;17.77;;;7.75;;
20711;SDS011;10517;50.742;4.224;2023-09-12T09:43:10;13.23;;;7.50;;
20711;SDS011;10517;50.742;4.224;2023-09-12T09:45:42;14.25;;;7.75;;
20711;SDS011;10517;50.742;4.224;2023-09-12T09:48:10;13.75;;;7.85;;
20711;SDS011;10517;50.742;4.224;2023-09-12T09:50:42;13.70;;;6.90;;
20711;SDS011;10517;50.742;4.224;2023-09-12T09:53:08;14.57;;;6.45;;
20711;SDS011;10517;50.742;4.224;2023-09-12T09:55:35;12.45;;;5.63;;
20711;SDS011;10517;50.742;4.224;2023-09-12T09:58:01;11.73;;;5.13;;
20711;SDS011;10517;50.742;4.224;2023-09-12T10:00:28;10.75;;;6.22;;
20711;SDS011;10517;50.742;4.224;2023-09-12T10:02:55;4.10;;;2.47;;
20711;SDS011;10517;50.742;4.224;2023-09-12T10:05:22;5.97;;;3.30;;
20711;SDS011;10517;50.742;4.224;2023-09-12T10:07:49;9.38;;;4.00;;
20711;SDS011;10517;50.742;4.224;2023-09-12T10:10:16;8.07;;;4.45;;
20711;SDS011;10517;50.742;4.224;2023-09-12T10:12:47;7.30;;;4.18;;
20711;SDS011;10517;50.742;4.224;2023-09-12T10:15:17;9.23;;;4.30;;
20711;SDS011;10517;50.742;4.224;2023-09-12T10:17:46;10.73;;;4.10;;
20711;SDS011;10517;50.742;4.224;2023-09-12T10:20:18;6.45;;;3.72;;
20711;SDS011;10517;50.742;4.224;2023-09-12T10:23:30;15.13;;;4.72;;
20711;SDS011;10517;50.742;4.224;2023-09-12T10:26:02;7.97;;;4.70;;
20711;SDS011;10517;50.742;4.224;2023-09-12T10:28:29;10.43;;;5.45;;
20711;SDS011;10517;50.742;4.224;2023-09-12T10:30:57;13.10;;;5.30;;
20711;SDS011;10517;50.742;4.224;2023-09-12T10:33:24;11.20;;;4.82;;
20711;SDS011;10517;50.742;4.224;2023-09-12T10:35:51;7.22;;;3.40;;
20711;SDS011;10517;50.742;4.224;2023-09-12T10:38:18;6.10;;;3.20;;
20711;SDS011;10517;50.742;4.224;2023-09-12T10:40:47;4.88;;;2.75;;
20711;SDS011;10517;50.742;4.224;2023-09-12T10:43:14;5.13;;;3.33;;
20711;SDS011;10517;50.742;4.224;2023-09-12T10:45:41;6.95;;;3.25;;
20711;SDS011;10517;50.742;4.224;2023-09-12T10:48:09;7.95;;;4.32;;
20711;SDS011;10517;50.742;4.224;2023-09-12T10:50:36;6.88;;;3.65;;
20711;SDS011;10517;50.742;4.224;2023-09-12T10:53:13;5.82;;;3.63;;
20711;SDS011;10517;50.742;4.224;2023-09-12T10:55:51;3.90;;;2.40;;
20711;SDS011;10517;50.742;4.224;2023-09-12T10:58:24;4.03;;;2.85;;
20711;SDS011;10517;50.742;4.224;2023-09-12T11:03:47;5.88;;;3.03;;
20711;SDS011;10517;50.742;4.224;2023-09-12T11:06:19;4.63;;;2.53;;
20711;SDS011;10517;50.742;4.224;2023-09-12T11:11:39;7.00;;;3.35;;
20711;SDS011;10517;50.742;4.224;2023-09-12T11:14:09;4.07;;;2.22;;
20711;SDS011;10517;50.742;4.224;2023-09-12T11:16:35;5.97;;;2.40;;
20711;SDS011;10517;50.742;4.224;2023-09-12T11:21:44;4.38;;;2.33;;
20711;SDS011;10517;50.742;4.224;2023-09-12T11:24:11;4.07;;;2.50;;
20711;SDS011;10517;50.742;4.224;2023-09-12T11:29:29;3.97;;;2.72;;
20711;SDS011;10517;50.742;4.224;2023-09-12T11:32:01;5.03;;;2.33;;
20711;SDS011;10517;50.742;4.224;2023-09-12T11:34:28;5.78;;;2.75;;
20711;SDS011;10517;50.742;4.224;2023-09-12T11:37:06;3.83;;;2.53;;
20711;SDS011;10517;50.742;4.224;2023-09-12T11:39:33;4.28;;;3.22;;
20711;SDS011;10517;50.742;4.224;2023-09-12T11:42:00;6.43;;;2.92;;
20711;SDS011;10517;50.742;4.224;2023-09-12T11:44:28;3.17;;;2.40;;
20711;SDS011;10517;50.742;4.224;2023-09-12T11:46:56;3.35;;;2.53;;
20711;SDS011;10517;50.742;4.224;2023-09-12T11:49:38;5.28;;;3.00;;
20711;SDS011;10517;50.742;4.224;2023-09-12T11:52:12;4.50;;;2.78;;
20711;SDS011;10517;50.742;4.224;2023-09-12T11:54:43;3.10;;;2.40;;
20711;SDS011;10517;50.742;4.224;2023-09-12T11:57:10;4.53;;;2.13;;
20711;SDS011;10517;50.742;4.224;2023-09-12T11:59:39;3.83;;;2.20;;
20711;SDS011;10517;50.742;4.224;2023-09-12T12:02:09;4.00;;;2.83;;
20711;SDS011;10517;50.742;4.224;2023-09-12T12:04:35;4.57;;;1.73;;
20711;SDS011;10517;50.742;4.224;2023-09-12T12:07:02;3.35;;;2.42;;
20711;SDS011;10517;50.742;4.224;2023-09-12T12:09:32;4.55;;;2.28;;
20711;SDS011;10517;50.742;4.224;2023-09-12T12:14:38;4.88;;;2.00;;
20711;SDS011;10517;50.742;4.224;2023-09-12T12:17:10;2.83;;;2.10;;
20711;SDS011;10517;50.742;4.224;2023-09-12T12:19:37;4.13;;;1.90;;
20711;SDS011;10517;50.742;4.224;2023-09-12T12:22:05;3.38;;;2.17;;
20711;SDS011;10517;50.742;4.224;2023-09-12T12:24:39;2.83;;;1.90;;
20711;SDS011;10517;50.742;4.224;2023-09-12T12:27:09;2.70;;;2.33;;
20711;SDS011;10517;50.742;4.224;2023-09-12T12:29:36;2.97;;;2.20;;
20711;SDS011;10517;50.742;4.224;2023-09-12T12:32:04;6.75;;;2.13;;
20711;SDS011;10517;50.742;4.224;2023-09-12T12:34:31;4.53;;;2.28;;
20711;SDS011;10517;50.742;4.224;2023-09-12T12:36:57;3.58;;;2.03;;
20711;SDS011;10517;50.742;4.224;2023-09-12T12:39:22;3.08;;;1.80;;
20711;SDS011;10517;50.742;4.224;2023-09-12T12:41:51;2.83;;;2.10;;
20711;SDS011;10517;50.742;4.224;2023-09-12T12:44:18;4.07;;;2.40;;
20711;SDS011;10517;50.742;4.224;2023-09-12T12:46:53;3.83;;;2.33;;
20711;SDS011;10517;50.742;4.224;2023-09-12T12:49:19;1.75;;;1.60;;
20711;SDS011;10517;50.742;4.224;2023-09-12T12:51:46;4.22;;;2.47;;
20711;SDS011;10517;50.742;4.224;2023-09-12T12:54:12;6.45;;;2.10;;
20711;SDS011;10517;50.742;4.224;2023-09-12T12:56:39;1.98;;;1.63;;
20711;SDS011;10517;50.742;4.224;2023-09-12T12:59:07;6.60;;;1.90;;
20711;SDS011;10517;50.742;4.224;2023-09-12T13:01:37;2.60;;;1.70;;
20711;SDS011;10517;50.742;4.224;2023-09-12T13:04:07;2.75;;;1.80;;
20711;SDS011;10517;50.742;4.224;2023-09-12T13:06:33;4.55;;;2.00;;
20711;SDS011;10517;50.742;4.224;2023-09-12T13:09:03;2.95;;;1.65;;
20711;SDS011;10517;50.742;4.224;2023-09-12T13:11:31;6.10;;;2.05;;
20711;SDS011;10517;50.742;4.224;2023-09-12T13:14:00;3.83;;;2.60;;
20711;SDS011;10517;50.742;4.224;2023-09-12T13:16:28;6.05;;;2.22;;
20711;SDS011;10517;50.742;4.224;2023-09-12T13:18:54;5.50;;;3.00;;
20711;SDS011;10517;50.742;4.224;2023-09-12T13:21:20;4.00;;;2.28;;
20711;SDS011;10517;50.742;4.224;2023-09-12T13:23:46;4.75;;;2.45;;
20711;SDS011;10517;50.742;4.224;2023-09-12T13:26:12;4.25;;;2.25;;
20711;SDS011;10517;50.742;4.224;2023-09-12T13:28:38;3.72;;;2.55;;
20711;SDS011;10517;50.742;4.224;2023-09-12T13:31:04;5.43;;;2.70;;
20711;SDS011;10517;50.742;4.224;2023-09-12T13:33:29;3.13;;;2.20;;
20711;SDS011;10517;50.742;4.224;2023-09-12T13:35:56;4.80;;;2.33;;
20711;SDS011;10517;50.742;4.224;2023-09-12T13:38:22;5.00;;;2.38;;
20711;SDS011;10517;50.742;4.224;2023-09-12T13:40:48;3.17;;;2.50;;
20711;SDS011;10517;50.742;4.224;2023-09-12T13:43:14;5.00;;;2.92;;
20711;SDS011;10517;50.742;4.224;2023-09-12T13:45:40;3.00;;;2.80;;
20711;SDS011;10517;50.742;4.224;2023-09-12T13:48:06;5.63;;;2.40;;
20711;SDS011;10517;50.742;4.224;2023-09-12T13:50:33;2.85;;;2.00;;
20711;SDS011;10517;50.742;4.224;2023-09-12T13:52:59;5.80;;;3.25;;
20711;SDS011;10517;50.742;4.224;2023-09-12T13:55:31;6.72;;;3.00;;
20711;SDS011;10517;50.742;4.224;2023-09-12T13:58:04;5.80;;;3.80;;
20711;SDS011;10517;50.742;4.224;2023-09-12T14:00:31;7.18;;;3.50;;
20711;SDS011;10517;50.742;4.224;2023-09-12T14:02:58;5.47;;;3.40;;
20711;SDS011;10517;50.742;4.224;2023-09-12T14:05:24;4.97;;;4.10;;
20711;SDS011;10517;50.742;4.224;2023-09-12T14:07:50;4.88;;;3.85;;
20711;SDS011;10517;50.742;4.224;2023-09-12T14:10:16;7.68;;;4.38;;
20711;SDS011;10517;50.742;4.224;2023-09-12T14:12:42;7.25;;;4.05;;
20711;SDS011;10517;50.742;4.224;2023-09-12T14:15:09;6.93;;;3.58;;
20711;SDS011;10517;50.742;4.224;2023-09-12T14:17:36;7.85;;;4.38;;
20711;SDS011;10517;50.742;4.224;2023-09-12T14:20:02;5.90;;;4.00;;
20711;SDS011;10517;50.742;4.224;2023-09-12T14:22:28;7.35;;;4.40;;
20711;SDS011;10517;50.742;4.224;2023-09-12T14:24:54;5.10;;;3.15;;
20711;SDS011;10517;50.742;4.224;2023-09-12T14:27:20;7.82;;;3.90;;
20711;SDS011;10517;50.742;4.224;2023-09-12T14:29:46;6.85;;;3.55;;
20711;SDS011;10517;50.742;4.224;2023-09-12T14:32:14;9.35;;;4.40;;
20711;SDS011;10517;50.742;4.224;2023-09-12T14:34:40;8.60;;;4.03;;
20711;SDS011;10517;50.742;4.224;2023-09-12T14:37:06;10.10;;;5.00;;
20711;SDS011;10517;50.742;4.224;2023-09-12T14:39:32;8.50;;;5.60;;
20711;SDS011;10517;50.742;4.224;2023-09-12T14:41:58;5.72;;;4.22;;
20711;SDS011;10517;50.742;4.224;2023-09-12T14:44:26;6.05;;;3.83;;
20711;SDS011;10517;50.742;4.224;2023-09-12T14:46:53;4.88;;;3.40;;
20711;SDS011;10517;50.742;4.224;2023-09-12T14:49:20;7.15;;;4.97;;
20711;SDS011;10517;50.742;4.224;2023-09-12T14:51:45;9.82;;;5.45;;
20711;SDS011;10517;50.742;4.224;2023-09-12T14:54:11;9.30;;;5.20;;
20711;SDS011;10517;50.742;4.224;2023-09-12T14:56:37;9.43;;;5.95;;
20711;SDS011;10517;50.742;4.224;2023-09-12T14:59:03;11.10;;;5.53;;